createdAt,value
2022-08-27T00:02:24.624Z,25.10
2022-08-27T00:04:53.592Z,25.10
2022-08-27T00:07:22.229Z,24.57
2022-08-27T00:09:50.767Z,24.13
2022-08-27T00:12:19.308Z,25.70
2022-08-27T00:14:47.820Z,26.30
2022-08-27T00:17:16.447Z,25.10
2022-08-27T00:19:46.342Z,23.57
2022-08-27T00:22:15.075Z,22.50
2022-08-27T00:24:49.060Z,22.70
2022-08-27T00:27:18.297Z,22.97
2022-08-27T00:29:47.254Z,23.53
2022-08-27T00:32:16.258Z,24.40
2022-08-27T00:34:47.259Z,29.00
2022-08-27T00:37:15.900Z,25.77
2022-08-27T00:39:44.471Z,25.20
2022-08-27T00:42:13.174Z,26.17
2022-08-27T00:44:41.892Z,25.30
2022-08-27T00:47:26.439Z,25.73
2022-08-27T00:49:59.922Z,25.87
2022-08-27T00:52:30.982Z,24.60
2022-08-27T00:55:03.991Z,25.70
2022-08-27T00:57:33.879Z,26.83
2022-08-27T01:00:03.283Z,27.80
2022-08-27T01:02:32.762Z,24.73
2022-08-27T01:05:07.029Z,26.80
2022-08-27T01:07:40.732Z,26.00
2022-08-27T01:10:13.511Z,26.03
2022-08-27T01:12:42.243Z,26.57
2022-08-27T01:15:18.128Z,28.33
2022-08-27T01:17:49.781Z,26.40
2022-08-27T01:20:23.442Z,25.13
2022-08-27T01:23:00.296Z,25.40
2022-08-27T01:25:31.107Z,26.50
2022-08-27T01:28:01.346Z,25.37
2022-08-27T01:30:31.314Z,24.37
2022-08-27T01:32:59.903Z,25.80
2022-08-27T01:35:28.933Z,23.90
2022-08-27T01:37:59.658Z,25.10
2022-08-27T01:40:30.671Z,23.90
2022-08-27T01:43:00.252Z,24.60
2022-08-27T01:45:31.362Z,24.87
2022-08-27T01:48:00.414Z,23.17
2022-08-27T01:50:32.203Z,24.13
2022-08-27T01:53:05.369Z,23.50
2022-08-27T01:55:35.926Z,22.60
2022-08-27T01:58:04.856Z,23.93
2022-08-27T02:00:36.364Z,22.47
2022-08-27T02:03:05.395Z,23.07
2022-08-27T02:05:44.636Z,22.10
2022-08-27T02:08:15.951Z,23.70
2022-08-27T02:10:48.054Z,22.33
2022-08-27T02:13:17.367Z,23.30
2022-08-27T02:15:46.615Z,22.60
2022-08-27T02:18:15.906Z,23.93
2022-08-27T02:20:45.594Z,24.90
2022-08-27T02:23:14.514Z,24.47
2022-08-27T02:25:43.265Z,24.13
2022-08-27T02:28:13.197Z,23.37
2022-08-27T02:30:41.872Z,21.50
2022-08-27T02:33:10.465Z,21.93
2022-08-27T02:35:40.713Z,21.27
2022-08-27T02:38:09.801Z,23.43
2022-08-27T02:40:38.510Z,21.73
2022-08-27T02:43:07.798Z,21.87
2022-08-27T02:45:38.016Z,23.43
2022-08-27T02:48:07.805Z,22.93
2022-08-27T02:50:36.489Z,24.27
2022-08-27T02:53:06.741Z,23.53
2022-08-27T02:55:35.765Z,24.17
2022-08-27T02:58:05.723Z,22.80
2022-08-27T03:00:34.629Z,23.20
2022-08-27T03:03:05.205Z,26.37
2022-08-27T03:05:33.818Z,24.20
2022-08-27T03:08:03.517Z,25.17
2022-08-27T03:10:32.427Z,26.87
2022-08-27T03:13:00.992Z,25.40
2022-08-27T03:15:29.617Z,29.17
2022-08-27T03:18:15.298Z,26.03
2022-08-27T03:20:46.700Z,29.13
2022-08-27T03:23:16.578Z,29.80
2022-08-27T03:25:47.530Z,31.10
2022-08-27T03:28:23.128Z,31.83
2022-08-27T03:30:53.478Z,34.00
2022-08-27T03:33:22.752Z,34.37
2022-08-27T03:35:53.239Z,35.97
2022-08-27T03:38:21.898Z,36.00
2022-08-27T03:40:50.949Z,35.50
2022-08-27T03:43:21.570Z,34.97
2022-08-27T03:46:01.296Z,35.37
2022-08-27T03:48:31.993Z,35.13
2022-08-27T03:51:06.651Z,35.43
2022-08-27T03:53:35.716Z,37.37
2022-08-27T03:56:04.759Z,33.13
2022-08-27T03:58:33.477Z,34.17
2022-08-27T04:01:02.597Z,32.90
2022-08-27T04:03:31.339Z,35.50
2022-08-27T04:06:01.617Z,33.13
2022-08-27T04:08:30.339Z,36.00
2022-08-27T04:10:58.900Z,32.53
2022-08-27T04:13:27.481Z,34.13
2022-08-27T04:15:56.935Z,32.00
2022-08-27T04:18:25.759Z,31.83
2022-08-27T04:20:54.583Z,33.90
2022-08-27T04:23:24.652Z,34.93
2022-08-27T04:25:53.194Z,34.77
2022-08-27T04:28:21.851Z,33.13
2022-08-27T04:30:50.502Z,31.93
2022-08-27T04:33:19.263Z,31.10
2022-08-27T04:35:47.879Z,33.03
2022-08-27T04:38:16.484Z,33.17
2022-08-27T04:41:03.711Z,30.77
2022-08-27T04:43:32.251Z,33.20
2022-08-27T04:46:00.855Z,32.00
2022-08-27T04:48:29.468Z,31.70
2022-08-27T04:50:58.309Z,30.50
2022-08-27T04:53:26.996Z,30.30
2022-08-27T04:55:58.237Z,30.50
2022-08-27T04:58:27.377Z,29.90
2022-08-27T05:00:58.087Z,29.47
2022-08-27T05:03:27.190Z,27.70
2022-08-27T05:06:01.392Z,26.77
2022-08-27T05:08:30.320Z,24.67
2022-08-27T05:11:00.533Z,24.60
2022-08-27T05:13:30.158Z,27.10
2022-08-27T05:16:03.444Z,27.03
2022-08-27T05:18:35.263Z,24.67
2022-08-27T05:21:07.166Z,23.70
2022-08-27T05:23:41.311Z,26.27
2022-08-27T05:26:11.253Z,26.07
2022-08-27T05:28:39.829Z,28.37
2022-08-27T05:31:10.876Z,26.33
2022-08-27T05:33:40.408Z,29.80
2022-08-27T05:36:16.088Z,28.53
2022-08-27T05:38:44.686Z,24.50
2022-08-27T05:41:16.860Z,29.10
2022-08-27T05:43:49.863Z,29.10
2022-08-27T05:46:22.389Z,29.50
2022-08-27T05:48:52.083Z,29.07
2022-08-27T05:51:25.762Z,28.83
2022-08-27T05:53:58.321Z,25.83
2022-08-27T05:56:30.521Z,29.20
2022-08-27T05:59:16.887Z,24.50
2022-08-27T06:01:47.558Z,26.67
2022-08-27T06:04:18.039Z,27.33
2022-08-27T06:06:47.689Z,27.47
2022-08-27T06:09:18.773Z,26.17
2022-08-27T06:11:49.674Z,26.03
2022-08-27T06:14:18.302Z,26.47
2022-08-27T06:16:47.348Z,27.93
2022-08-27T06:19:16.409Z,24.70
2022-08-27T06:21:45.367Z,24.20
2022-08-27T06:24:14.767Z,23.43
2022-08-27T06:26:45.082Z,23.37
2022-08-27T06:29:15.688Z,23.33
2022-08-27T06:31:44.373Z,18.80
2022-08-27T06:34:13.269Z,19.53
2022-08-27T06:36:43.515Z,21.63
2022-08-27T06:39:15.522Z,21.87
2022-08-27T06:41:46.197Z,20.40
2022-08-27T06:44:16.296Z,21.30
2022-08-27T06:46:45.085Z,20.60
2022-08-27T06:49:14.353Z,19.43
2022-08-27T06:51:46.814Z,22.40
2022-08-27T06:54:17.282Z,22.40
2022-08-27T06:56:45.854Z,22.10
2022-08-27T06:59:18.644Z,24.93
2022-08-27T07:01:51.370Z,21.17
2022-08-27T07:04:27.812Z,23.17
2022-08-27T07:07:02.486Z,23.67
2022-08-27T07:09:32.545Z,22.30
2022-08-27T07:12:01.720Z,21.10
2022-08-27T07:14:37.816Z,22.00
2022-08-27T07:17:10.972Z,19.80
2022-08-27T07:19:45.322Z,19.90
2022-08-27T07:22:14.051Z,23.50
2022-08-27T07:24:42.701Z,20.80
2022-08-27T07:27:11.612Z,20.37
2022-08-27T07:29:41.545Z,20.17
2022-08-27T07:32:10.407Z,21.27
2022-08-27T07:34:39.018Z,23.30
2022-08-27T07:37:07.588Z,19.27
2022-08-27T07:39:36.198Z,20.20
2022-08-27T07:42:22.811Z,19.13
2022-08-27T07:44:52.675Z,20.30
2022-08-27T07:47:21.423Z,20.27
2022-08-27T07:49:50.230Z,20.10
2022-08-27T07:52:22.520Z,20.13
2022-08-27T07:54:53.240Z,20.77
2022-08-27T07:57:21.815Z,21.90
2022-08-27T07:59:53.183Z,20.53
2022-08-27T08:02:21.806Z,21.87
2022-08-27T08:04:50.555Z,19.63
2022-08-27T08:07:19.231Z,17.47
2022-08-27T08:09:47.839Z,16.87
2022-08-27T08:12:16.427Z,23.10
2022-08-27T08:14:45.747Z,20.13
2022-08-27T08:17:15.819Z,22.80
2022-08-27T08:19:57.236Z,19.97
2022-08-27T08:22:32.935Z,21.83
2022-08-27T08:25:01.657Z,20.80
2022-08-27T08:27:30.247Z,19.60
2022-08-27T08:29:59.040Z,21.30
2022-08-27T08:32:29.872Z,20.07
2022-08-27T08:35:00.026Z,19.43
2022-08-27T08:37:29.235Z,19.23
2022-08-27T08:39:57.890Z,17.63
2022-08-27T08:42:35.865Z,17.90
2022-08-27T08:45:06.607Z,16.30
2022-08-27T08:47:44.698Z,16.17
2022-08-27T08:50:19.809Z,15.90
2022-08-27T08:52:55.092Z,17.27
2022-08-27T08:55:38.687Z,16.00
2022-08-27T08:58:18.089Z,15.57
2022-08-27T09:00:49.780Z,15.97
2022-08-27T09:03:20.209Z,14.87
2022-08-27T09:05:55.849Z,16.73
2022-08-27T09:08:35.428Z,16.07
2022-08-27T09:11:10.771Z,15.93
2022-08-27T09:13:44.430Z,17.77
2022-08-27T09:16:13.095Z,21.47
2022-08-27T09:18:45.434Z,16.73
2022-08-27T09:21:27.842Z,15.47
2022-08-27T09:24:05.216Z,17.90
2022-08-27T09:26:38.444Z,16.47
2022-08-27T09:29:22.392Z,13.50
2022-08-27T09:31:57.429Z,11.30
2022-08-27T09:34:35.617Z,9.90
2022-08-27T09:37:08.681Z,8.70
2022-08-27T09:39:49.664Z,7.13
2022-08-27T09:42:31.974Z,6.03
2022-08-27T09:45:00.884Z,7.30
2022-08-27T09:47:29.883Z,7.40
2022-08-27T09:50:10.280Z,8.60
2022-08-27T09:52:51.322Z,7.20
2022-08-27T09:55:32.143Z,7.23
2022-08-27T09:58:01.522Z,5.53
2022-08-27T10:00:37.380Z,6.60
2022-08-27T10:03:07.013Z,5.37
2022-08-27T10:05:41.065Z,5.00
2022-08-27T10:08:20.774Z,4.47
2022-08-27T10:10:56.711Z,5.00
2022-08-27T10:13:31.891Z,4.20
2022-08-27T10:16:55.410Z,5.20
2022-08-27T10:19:46.562Z,5.53
2022-08-27T10:22:28.055Z,5.27
2022-08-27T10:25:08.099Z,5.07
2022-08-27T10:27:46.882Z,6.07
2022-08-27T10:30:19.438Z,6.00
2022-08-27T10:33:04.320Z,6.70
2022-08-27T10:35:47.891Z,7.20
2022-08-27T10:38:31.196Z,5.97
2022-08-27T10:41:07.302Z,6.77
2022-08-27T10:43:56.355Z,6.40
2022-08-27T10:46:50.245Z,6.77
2022-08-27T10:49:31.129Z,7.23
2022-08-27T10:52:08.301Z,7.10
2022-08-27T10:54:41.644Z,6.03
2022-08-27T10:57:35.349Z,7.70
2022-08-27T11:00:13.556Z,7.40
2022-08-27T11:02:45.498Z,5.27
2022-08-27T11:05:20.209Z,7.23
2022-08-27T11:07:54.598Z,6.77
2022-08-27T11:10:29.113Z,6.73
2022-08-27T11:13:01.693Z,6.53
2022-08-27T11:15:34.200Z,6.73
2022-08-27T11:18:09.739Z,6.20
2022-08-27T11:20:46.533Z,5.90
2022-08-27T11:23:18.635Z,7.20
2022-08-27T11:25:53.789Z,7.30
2022-08-27T11:28:29.799Z,7.50
2022-08-27T11:31:07.152Z,6.70
2022-08-27T11:33:45.480Z,7.50
2022-08-27T11:36:43.085Z,8.30
2022-08-27T11:39:26.302Z,7.57
2022-08-27T11:42:07.128Z,7.93
2022-08-27T11:44:43.119Z,8.07
2022-08-27T11:47:15.333Z,8.83
2022-08-27T11:49:48.783Z,8.20
2022-08-27T11:52:27.187Z,9.07
2022-08-27T11:55:12.023Z,9.60
2022-08-27T11:57:42.837Z,7.80
2022-08-27T12:00:21.517Z,10.13
2022-08-27T12:03:00.466Z,9.40
2022-08-27T12:05:38.273Z,9.53
2022-08-27T12:08:26.154Z,8.50
2022-08-27T12:11:14.628Z,10.20
2022-08-27T12:13:54.049Z,8.97
2022-08-27T12:16:32.307Z,11.13
2022-08-27T12:19:10.482Z,14.57
2022-08-27T12:21:52.799Z,11.60
2022-08-27T12:24:45.491Z,11.17
2022-08-27T12:27:28.260Z,12.50
2022-08-27T12:30:01.164Z,13.63
2022-08-27T12:32:33.554Z,13.20
2022-08-27T12:35:13.835Z,14.90
2022-08-27T12:37:48.454Z,14.73
2022-08-27T12:40:24.788Z,13.50
2022-08-27T12:43:04.801Z,14.20
2022-08-27T12:45:35.699Z,16.30
2022-08-27T12:48:04.542Z,15.40
2022-08-27T12:50:33.196Z,16.60
2022-08-27T12:53:17.110Z,15.40
2022-08-27T12:56:03.843Z,17.50
2022-08-27T12:58:42.946Z,16.63
2022-08-27T13:01:32.626Z,16.50
2022-08-27T13:04:02.078Z,17.03
2022-08-27T13:06:33.717Z,16.50
2022-08-27T13:09:04.868Z,18.40
2022-08-27T13:11:35.886Z,19.17
2022-08-27T13:14:10.668Z,19.90
2022-08-27T13:16:45.852Z,19.27
2022-08-27T13:19:22.646Z,19.70
2022-08-27T13:21:52.139Z,16.40
2022-08-27T13:24:27.788Z,11.80
2022-08-27T13:26:57.636Z,9.37
2022-08-27T13:29:27.078Z,10.90
2022-08-27T13:31:57.528Z,11.13
2022-08-27T13:34:29.112Z,11.03
2022-08-27T13:37:02.377Z,8.43
2022-08-27T13:39:31.485Z,12.03
2022-08-27T13:42:01.950Z,12.30
2022-08-27T13:44:36.043Z,12.47
2022-08-27T13:47:08.877Z,13.57
2022-08-27T13:49:39.933Z,13.50
2022-08-27T13:52:23.489Z,13.20
2022-08-27T13:54:58.286Z,15.63
2022-08-27T13:57:31.369Z,16.47
2022-08-27T14:00:11.901Z,15.70
2022-08-27T14:02:42.359Z,14.17
2022-08-27T14:05:32.393Z,14.00
2022-08-27T14:08:03.036Z,14.20
2022-08-27T14:10:37.400Z,15.43
2022-08-27T14:13:09.146Z,13.30
2022-08-27T14:15:40.689Z,15.70
2022-08-27T14:18:36.791Z,14.67
2022-08-27T14:21:11.016Z,15.80
2022-08-27T14:23:39.786Z,14.10
2022-08-27T14:26:09.880Z,13.67
2022-08-27T14:28:38.431Z,14.40
2022-08-27T14:31:07.228Z,12.80
2022-08-27T14:33:37.519Z,12.93
2022-08-27T14:36:06.839Z,12.13
2022-08-27T14:38:43.013Z,13.37
2022-08-27T14:41:14.346Z,11.90
2022-08-27T14:43:43.512Z,13.47
2022-08-27T14:46:24.680Z,13.90
2022-08-27T14:48:56.603Z,14.60
2022-08-27T14:51:28.358Z,14.40
2022-08-27T14:53:57.825Z,15.73
2022-08-27T14:56:27.425Z,17.87
2022-08-27T14:58:56.108Z,16.87
2022-08-27T15:01:26.269Z,16.57
2022-08-27T15:03:57.045Z,15.30
2022-08-27T15:06:27.157Z,17.13
2022-08-27T15:08:56.332Z,17.90
2022-08-27T15:11:27.688Z,15.90
2022-08-27T15:13:58.200Z,16.17
2022-08-27T15:16:32.574Z,15.10
2022-08-27T15:19:03.456Z,15.17
2022-08-27T15:21:32.382Z,14.37
2022-08-27T15:24:03.277Z,13.37
2022-08-27T15:26:33.198Z,14.20
2022-08-27T15:29:06.322Z,13.57
2022-08-27T15:31:35.911Z,13.73
2022-08-27T15:34:06.606Z,11.43
2022-08-27T15:36:35.352Z,13.60
2022-08-27T15:39:04.867Z,13.60
2022-08-27T15:41:46.094Z,13.57
2022-08-27T15:44:23.010Z,15.97
2022-08-27T15:46:51.980Z,12.53
2022-08-27T15:49:21.983Z,14.63
2022-08-27T15:51:52.025Z,13.00
2022-08-27T15:54:20.858Z,13.90
2022-08-27T15:56:49.382Z,11.97
2022-08-27T15:59:18.587Z,12.50
2022-08-27T16:01:48.129Z,10.63
2022-08-27T16:04:17.608Z,12.73
2022-08-27T16:06:49.108Z,13.90
2022-08-27T16:09:17.774Z,14.03
2022-08-27T16:11:46.352Z,13.70
2022-08-27T16:14:15.643Z,13.13
2022-08-27T16:16:47.108Z,13.47
2022-08-27T16:19:16.827Z,14.87
2022-08-27T16:21:47.002Z,14.63
2022-08-27T16:24:16.373Z,16.70
2022-08-27T16:26:44.911Z,15.67
2022-08-27T16:29:13.398Z,17.67
2022-08-27T16:31:41.982Z,18.00
2022-08-27T16:34:18.294Z,17.40
2022-08-27T16:37:16.112Z,17.93
2022-08-27T16:39:44.688Z,16.23
2022-08-27T16:42:13.216Z,16.77
2022-08-27T16:44:42.310Z,15.23
2022-08-27T16:47:10.934Z,16.20
2022-08-27T16:49:57.214Z,16.23
2022-08-27T16:52:27.248Z,15.83
2022-08-27T16:54:56.865Z,17.60
2022-08-27T16:57:25.498Z,16.80
2022-08-27T16:59:54.996Z,19.60
2022-08-27T17:02:30.498Z,16.33
2022-08-27T17:05:17.406Z,18.00
2022-08-27T17:07:51.098Z,16.90
2022-08-27T17:10:20.453Z,17.40
2022-08-27T17:12:49.614Z,17.13
2022-08-27T17:15:18.974Z,18.70
2022-08-27T17:17:48.055Z,17.47
2022-08-27T17:20:43.201Z,16.73
2022-08-27T17:24:12.791Z,17.47
2022-08-27T17:26:47.700Z,18.23
2022-08-27T17:29:16.355Z,17.90
2022-08-27T17:32:08.074Z,18.47
2022-08-27T17:34:47.178Z,16.73
2022-08-27T17:38:11.483Z,17.37
2022-08-27T17:40:52.390Z,13.80
2022-08-27T17:43:41.783Z,14.30
2022-08-27T17:46:11.723Z,14.20
2022-08-27T17:48:43.844Z,14.50
2022-08-27T17:51:13.890Z,11.70
2022-08-27T17:53:49.895Z,11.23
2022-08-27T17:56:20.374Z,10.30
2022-08-27T17:58:52.422Z,10.97
2022-08-27T18:01:40.123Z,13.00
2022-08-27T18:08:02.916Z,11.73
2022-08-27T18:10:49.278Z,11.63
2022-08-27T18:16:30.553Z,11.30
2022-08-27T18:19:34.415Z,12.20
2022-08-27T18:22:51.834Z,11.93
2022-08-27T18:25:35.283Z,9.60
2022-08-27T18:28:16.062Z,11.30
2022-08-27T18:31:22.193Z,11.63
2022-08-27T18:34:40.790Z,12.33
2022-08-27T18:47:38.974Z,11.87
2022-08-27T18:50:17.868Z,11.30
2022-08-27T18:55:39.976Z,19.90
2022-08-27T18:59:01.168Z,11.50
2022-08-27T19:04:48.146Z,10.80
2022-08-27T19:07:45.218Z,9.83
2022-08-27T19:10:42.062Z,10.90
2022-08-27T19:28:05.591Z,8.53
2022-08-27T19:31:12.088Z,9.00
2022-08-27T19:34:14.297Z,8.33
2022-08-27T19:37:20.350Z,8.77
2022-08-27T19:40:51.026Z,7.87
2022-08-27T19:43:52.499Z,9.47
2022-08-27T19:46:36.306Z,8.17
2022-08-27T19:49:17.774Z,7.17
2022-08-27T19:52:08.571Z,7.43
2022-08-27T19:58:13.624Z,7.73
2022-08-27T20:00:42.810Z,7.20
2022-08-27T20:03:22.756Z,6.90
2022-08-27T20:06:00.472Z,7.80
2022-08-27T20:08:29.452Z,8.00
2022-08-27T20:11:28.161Z,7.00
2022-08-27T20:13:59.040Z,6.23
2022-08-27T20:16:28.556Z,6.60
2022-08-27T20:19:00.546Z,5.10
2022-08-27T20:21:29.915Z,6.10
2022-08-27T20:23:59.191Z,6.73
2022-08-27T20:26:30.706Z,5.13
2022-08-27T20:29:03.837Z,5.37
2022-08-27T20:31:32.823Z,4.80
2022-08-27T20:34:01.919Z,5.10
2022-08-27T20:37:06.577Z,6.20
2022-08-27T20:39:36.148Z,6.40
2022-08-27T20:42:05.982Z,4.77
2022-08-27T20:45:17.124Z,7.67
2022-08-27T20:47:48.101Z,7.30
2022-08-27T20:50:17.909Z,6.23
2022-08-27T20:52:46.885Z,7.33
2022-08-27T20:55:23.685Z,7.73
2022-08-27T20:58:12.690Z,7.57
2022-08-27T21:00:53.113Z,7.53
2022-08-27T21:03:21.854Z,6.07
2022-08-27T21:05:50.843Z,6.10
2022-08-27T21:08:21.818Z,4.90
2022-08-27T21:10:53.110Z,5.30
2022-08-27T21:13:22.747Z,6.30
2022-08-27T21:21:34.256Z,5.43
2022-08-27T21:24:03.207Z,6.03
2022-08-27T21:26:31.888Z,7.47
2022-08-27T21:29:00.569Z,5.50
2022-08-27T21:31:30.905Z,5.80
2022-08-27T21:33:59.695Z,5.10
2022-08-27T21:36:34.993Z,6.37
2022-08-27T21:39:04.042Z,6.30
2022-08-27T21:41:37.213Z,6.50
2022-08-27T21:44:18.314Z,7.07
2022-08-27T21:46:48.490Z,6.97
2022-08-27T21:49:17.246Z,6.73
2022-08-27T21:51:45.832Z,8.70
2022-08-27T21:54:14.457Z,6.83
2022-08-27T21:56:43.022Z,6.23
2022-08-27T21:59:11.635Z,7.87
2022-08-27T22:01:40.619Z,8.57
2022-08-27T22:04:10.743Z,8.20
2022-08-27T22:06:39.311Z,7.73
2022-08-27T22:09:07.934Z,8.30
2022-08-27T22:11:42.593Z,5.30
2022-08-27T22:14:13.599Z,8.53
2022-08-27T22:16:42.214Z,8.20
2022-08-27T22:19:12.202Z,7.50
2022-08-27T22:21:40.729Z,8.30
2022-08-27T22:24:09.745Z,9.90
2022-08-27T22:26:38.467Z,10.30
2022-08-27T22:29:07.390Z,6.37
2022-08-27T22:31:44.252Z,7.23
2022-08-27T22:34:15.128Z,8.73
2022-08-27T22:36:45.055Z,10.67
2022-08-27T22:39:13.612Z,8.43
2022-08-27T22:41:43.934Z,9.87
2022-08-27T22:44:17.505Z,10.33
2022-08-27T22:46:46.236Z,8.37
2022-08-27T22:49:16.341Z,8.37
2022-08-27T22:51:44.961Z,9.07
2022-08-27T22:54:13.534Z,9.07
2022-08-27T22:56:42.638Z,10.03
2022-08-27T22:59:11.337Z,10.00
2022-08-27T23:01:40.003Z,7.80
2022-08-27T23:04:08.987Z,8.27
2022-08-27T23:06:39.434Z,7.13
2022-08-27T23:09:08.034Z,8.70
2022-08-27T23:11:37.598Z,7.30
2022-08-27T23:14:06.233Z,7.83
2022-08-27T23:16:34.916Z,8.00
2022-08-27T23:19:03.886Z,8.37
2022-08-27T23:21:32.413Z,10.77
2022-08-27T23:24:02.771Z,10.43
2022-08-27T23:26:48.667Z,9.67
2022-08-27T23:29:17.603Z,10.50
2022-08-27T23:31:46.242Z,9.60
2022-08-27T23:34:15.365Z,10.87
2022-08-27T23:36:44.356Z,11.93
2022-08-27T23:39:15.003Z,15.73
2022-08-27T23:41:44.850Z,13.43
2022-08-27T23:44:13.667Z,12.57
2022-08-27T23:46:42.359Z,15.77
2022-08-27T23:49:11.589Z,12.90
2022-08-27T23:51:40.389Z,15.87
2022-08-27T23:54:09.276Z,16.23
2022-08-27T23:56:39.503Z,14.60
2022-08-27T23:59:08.189Z,12.57
